Time;durP1;ratioP1;P1;durP2;ratioP2;P2;SDS_P1;SDS_P2;PMS_P1;PMS_P2;Temp;Humidity;BMP_temperature;BMP_pressure;BME280_temperature;BME280_humidity;BME280_pressure;Samples;Min_cycle;Max_cycle;Signal;HPM_P1;HPM_P2
2022/12/06 00:01:05;;;;;;;18.27;11.67;;;6.10;99.90;;;;;;5037568;28;20234;-60
2022/12/06 00:03:33;;;;;;;13.40;9.80;;;6.10;99.90;;;;;;5037266;28;20230;-60
2022/12/06 00:06:02;;;;;;;12.67;9.50;;;6.20;99.90;;;;;;5037204;28;20662;-60
2022/12/06 00:08:30;;;;;;;13.00;9.53;;;6.30;99.90;;;;;;5035708;28;20226;-62
2022/12/06 00:11:04;;;;;;;13.07;10.03;;;6.30;99.90;;;;;;5037570;28;20226;-60
2022/12/06 00:13:31;;;;;;;13.67;9.83;;;6.40;99.90;;;;;;5039172;28;20206;-61
2022/12/06 00:16:01;;;;;;;13.90;9.63;;;6.30;99.90;;;;;;5036456;28;20757;-61
2022/12/06 00:18:29;;;;;;;13.70;9.73;;;6.40;99.90;;;;;;5036478;28;20206;-61
2022/12/06 00:20:56;;;;;;;13.73;10.10;;;6.60;99.90;;;;;;5036379;28;20245;-62
2022/12/06 00:23:23;;;;;;;11.67;9.50;;;6.70;99.90;;;;;;5036515;28;20257;-61
2022/12/06 00:25:52;;;;;;;13.87;10.47;;;6.80;99.90;;;;;;5039470;28;20213;-61
2022/12/06 00:28:19;;;;;;;12.87;9.70;;;6.90;99.90;;;;;;5038504;28;20264;-61
2022/12/06 00:30:46;;;;;;;12.07;9.63;;;7.00;99.90;;;;;;5037914;28;20729;-62
2022/12/06 00:33:13;;;;;;;12.70;9.97;;;7.10;99.90;;;;;;5036794;28;20214;-61
2022/12/06 00:35:40;;;;;;;12.63;9.97;;;7.10;99.90;;;;;;5036575;28;20222;-61
2022/12/06 00:38:07;;;;;;;12.03;9.17;;;7.20;99.90;;;;;;5034645;28;20203;-61
2022/12/06 00:40:34;;;;;;;13.13;9.00;;;7.20;99.90;;;;;;5035930;28;20233;-61
2022/12/06 00:43:02;;;;;;;13.10;9.07;;;7.20;99.90;;;;;;5035421;28;20202;-61
2022/12/06 00:45:29;;;;;;;11.00;9.00;;;7.20;99.90;;;;;;5037126;28;20240;-62
2022/12/06 00:47:56;;;;;;;11.03;9.00;;;7.10;99.90;;;;;;5035134;28;20246;-61
2022/12/06 00:50:23;;;;;;;12.23;8.27;;;6.90;99.90;;;;;;5036625;28;20230;-61
2022/12/06 00:52:50;;;;;;;11.70;8.60;;;6.90;99.90;;;;;;5035892;28;20207;-61
2022/12/06 00:55:17;;;;;;;13.63;9.03;;;6.90;99.90;;;;;;5036770;28;20216;-61
2022/12/06 00:57:44;;;;;;;14.23;9.30;;;6.80;99.90;;;;;;5035801;28;20241;-61
2022/12/06 01:00:14;;;;;;;12.83;9.17;;;6.70;99.90;;;;;;5034874;28;20626;-61
2022/12/06 01:02:41;;;;;;;9.83;8.60;;;6.70;99.90;;;;;;5035182;28;20296;-61
2022/12/06 01:05:09;;;;;;;12.33;9.33;;;6.60;99.90;;;;;;5037211;28;20214;-61
2022/12/06 01:07:36;;;;;;;12.00;9.03;;;6.60;99.90;;;;;;5038650;28;20205;-61
2022/12/06 01:10:04;;;;;;;13.10;8.97;;;6.40;99.90;;;;;;5038380;28;20258;-61
2022/12/06 01:12:31;;;;;;;11.47;8.70;;;6.40;99.90;;;;;;5038218;28;20293;-61
2022/12/06 01:14:58;;;;;;;13.43;9.53;;;6.40;99.90;;;;;;5038533;28;20301;-61
2022/12/06 01:17:26;;;;;;;12.43;9.60;;;6.30;99.90;;;;;;5038163;28;20284;-60
2022/12/06 01:19:53;;;;;;;11.77;8.97;;;6.20;99.90;;;;;;5039548;28;20790;-60
2022/12/06 01:22:20;;;;;;;12.73;9.17;;;6.20;99.90;;;;;;5037550;28;20294;-60
2022/12/06 01:24:47;;;;;;;11.63;9.07;;;6.10;99.90;;;;;;5036959;28;20211;-60
2022/12/06 01:27:14;;;;;;;10.27;8.37;;;6.10;99.90;;;;;;5036512;28;20202;-60
2022/12/06 01:29:41;;;;;;;11.67;9.03;;;6.20;99.90;;;;;;5065797;22;20283;-70
2022/12/06 01:32:07;;;;;;;11.67;8.90;;;6.20;99.90;;;;;;5046488;28;20193;-70
2022/12/06 01:34:36;;;;;;;11.53;8.80;;;6.20;99.90;;;;;;5055031;28;20213;-70
2022/12/06 01:37:02;;;;;;;12.60;9.20;;;6.30;99.90;;;;;;5054256;28;20306;-69
2022/12/06 01:39:29;;;;;;;10.93;8.57;;;6.20;99.90;;;;;;5058923;28;20722;-70
2022/12/06 01:41:56;;;;;;;11.47;9.33;;;6.20;99.90;;;;;;5074873;28;20216;-69
2022/12/06 01:44:44;;;;;;;11.27;8.93;;;6.10;99.90;;;;;;5074648;28;20231;-70
2022/12/06 01:47:18;;;;;;;12.77;9.33;;;6.10;99.90;;;;;;5074209;28;20205;-69
2022/12/06 01:49:50;;;;;;;11.60;8.83;;;6.10;99.90;;;;;;5074527;28;20228;-69
2022/12/06 01:52:19;;;;;;;10.67;8.63;;;6.10;99.90;;;;;;5074423;28;20694;-69
2022/12/06 01:54:45;;;;;;;12.93;9.27;;;6.10;99.90;;;;;;5074904;28;20209;-70
2022/12/06 01:57:15;;;;;;;12.77;9.23;;;6.00;99.90;;;;;;5074194;28;20225;-70
2022/12/06 01:59:42;;;;;;;11.23;8.67;;;6.00;99.90;;;;;;5074600;28;20287;-70
2022/12/06 02:02:10;;;;;;;13.63;9.10;;;5.90;99.90;;;;;;5074907;28;20209;-69
2022/12/06 02:04:37;;;;;;;10.73;9.03;;;5.90;99.90;;;;;;5074621;28;20262;-69
2022/12/06 02:07:06;;;;;;;11.77;8.63;;;5.90;99.90;;;;;;5073746;28;20197;-70
2022/12/06 02:09:34;;;;;;;14.60;9.23;;;6.00;99.90;;;;;;5074141;28;20231;-69
2022/12/06 02:12:01;;;;;;;11.13;9.00;;;6.00;99.90;;;;;;5074260;28;20209;-69
2022/12/06 02:14:32;;;;;;;15.53;8.57;;;6.00;99.90;;;;;;5074058;28;20209;-68
2022/12/06 02:17:13;;;;;;;12.07;9.13;;;6.20;99.90;;;;;;5073269;28;20228;-69
2022/12/06 02:19:56;;;;;;;13.33;9.00;;;6.30;99.90;;;;;;5073921;28;20228;-69
2022/12/06 02:22:32;;;;;;;11.60;8.90;;;6.40;99.90;;;;;;5073829;28;20686;-70
2022/12/06 02:25:10;;;;;;;13.70;8.77;;;6.40;99.90;;;;;;5073896;28;20209;-70
2022/12/06 02:27:56;;;;;;;10.77;8.93;;;6.30;99.90;;;;;;5073149;28;20580;-69
2022/12/06 02:30:41;;;;;;;11.80;8.87;;;6.30;99.90;;;;;;5073687;28;20259;-70
2022/12/06 02:33:11;;;;;;;11.20;8.70;;;6.20;99.90;;;;;;5074132;28;20201;-69
2022/12/06 02:35:42;;;;;;;10.63;8.27;;;6.10;99.90;;;;;;5073681;28;20205;-69
2022/12/06 02:38:16;;;;;;;14.73;9.80;;;6.00;99.90;;;;;;5073479;28;20223;-69
2022/12/06 02:40:48;;;;;;;13.00;9.57;;;6.00;99.90;;;;;;5073776;28;20232;-70
2022/12/06 02:43:19;;;;;;;12.60;9.77;;;6.00;99.90;;;;;;5074233;28;20216;-69
2022/12/06 02:45:53;;;;;;;10.93;8.87;;;6.00;99.90;;;;;;5073681;28;20209;-71
2022/12/06 02:48:22;;;;;;;11.13;8.87;;;6.10;99.90;;;;;;5072960;28;20205;-70
2022/12/06 02:50:53;;;;;;;11.73;8.80;;;6.20;99.90;;;;;;5073420;28;20232;-70
2022/12/06 02:53:22;;;;;;;12.97;8.90;;;6.30;99.90;;;;;;5073412;28;20216;-69
2022/12/06 02:55:50;;;;;;;10.90;8.47;;;6.30;99.90;;;;;;5073295;28;20691;-69
2022/12/06 02:58:17;;;;;;;10.10;7.93;;;6.30;99.90;;;;;;5073015;28;20208;-70
2022/12/06 03:00:45;;;;;;;10.13;8.03;;;6.20;99.90;;;;;;5073349;28;20232;-70
2022/12/06 03:03:38;;;;;;;11.70;8.57;;;6.30;99.90;;;;;;5073161;28;20213;-70
2022/12/06 03:06:42;;;;;;;11.63;8.57;;;6.30;99.90;;;;;;5072895;28;20220;-70
2022/12/06 03:09:24;;;;;;;10.77;7.87;;;6.40;99.90;;;;;;5059914;28;20546;-70
2022/12/06 03:11:59;;;;;;;11.07;7.80;;;6.30;99.90;;;;;;5073752;28;20205;-68
2022/12/06 03:14:28;;;;;;;10.70;8.00;;;6.20;99.90;;;;;;5073108;28;20204;-69
2022/12/06 03:17:03;;;;;;;8.90;7.90;;;6.20;99.90;;;;;;5072164;28;20616;-70
2022/12/06 03:19:33;;;;;;;11.03;8.53;;;6.20;99.90;;;;;;5072845;28;20232;-70
2022/12/06 03:22:03;;;;;;;10.30;8.27;;;6.30;99.90;;;;;;5072854;28;20209;-69
2022/12/06 03:24:35;;;;;;;10.17;7.97;;;6.40;99.90;;;;;;5073048;28;20220;-70
2022/12/06 03:27:04;;;;;;;11.37;8.57;;;6.40;99.90;;;;;;5071992;28;20205;-70
2022/12/06 03:29:33;;;;;;;9.20;7.90;;;6.40;99.90;;;;;;5072685;28;20244;-69
2022/12/06 03:32:02;;;;;;;9.20;7.77;;;6.40;99.90;;;;;;5072801;28;20448;-69
2022/12/06 03:34:35;;;;;;;11.00;8.13;;;6.50;99.90;;;;;;5072633;28;20576;-69
2022/12/06 03:37:04;;;;;;;10.83;8.27;;;6.50;99.90;;;;;;5071888;28;20508;-70
2022/12/06 03:39:36;;;;;;;9.80;8.00;;;6.50;99.90;;;;;;5072304;28;20236;-69
2022/12/06 03:42:03;;;;;;;10.47;8.23;;;6.50;99.90;;;;;;5072559;28;20217;-70
2022/12/06 03:44:30;;;;;;;10.50;8.30;;;6.60;99.90;;;;;;5072546;28;20212;-70
2022/12/06 03:47:03;;;;;;;10.67;8.10;;;6.60;99.90;;;;;;5071996;28;20197;-69
2022/12/06 03:49:36;;;;;;;9.60;7.87;;;6.70;99.90;;;;;;5072505;28;20225;-69
2022/12/06 03:52:04;;;;;;;11.03;8.17;;;6.70;99.90;;;;;;5072638;28;20213;-70
2022/12/06 03:54:30;;;;;;;10.30;8.27;;;6.70;99.90;;;;;;5073336;28;20204;-69
2022/12/06 03:56:57;;;;;;;9.07;7.60;;;6.70;99.90;;;;;;5071903;28;20232;-70
2022/12/06 03:59:24;;;;;;;9.87;7.93;;;6.70;99.90;;;;;;5072383;28;20231;-69
2022/12/06 04:01:50;;;;;;;10.37;7.97;;;6.80;99.90;;;;;;5072202;28;20205;-70
2022/12/06 04:04:17;;;;;;;9.80;7.97;;;6.80;99.90;;;;;;5072072;28;20209;-69
2022/12/06 04:06:45;;;;;;;9.90;8.13;;;6.80;99.90;;;;;;5072170;28;20208;-69
2022/12/06 04:11:56;;;;;;;11.07;8.20;;;6.90;99.90;;;;;;5072213;28;20203;-70
2022/12/06 04:14:31;;;;;;;12.07;8.13;;;6.90;99.90;;;;;;5071896;28;20210;-69
2022/12/06 04:19:42;;;;;;;10.20;8.23;;;6.90;99.90;;;;;;5072005;28;20236;-70
2022/12/06 04:24:54;;;;;;;10.53;8.23;;;6.80;99.90;;;;;;5072236;28;20572;-72
2022/12/06 04:41:05;;;;;;;10.53;8.53;;;6.70;99.90;;;;;;5076879;28;20228;-70
2022/12/06 04:43:42;;;;;;;10.00;7.80;;;6.80;99.90;;;;;;5076448;28;20220;-71
2022/12/06 04:46:09;;;;;;;9.60;7.80;;;6.90;99.90;;;;;;5076336;28;20671;-70
2022/12/06 04:48:36;;;;;;;12.73;8.03;;;7.00;99.90;;;;;;5075669;28;20209;-71
2022/12/06 04:51:03;;;;;;;10.93;8.87;;;7.10;99.90;;;;;;5075612;28;20232;-71
2022/12/06 04:53:31;;;;;;;12.60;9.00;;;7.10;99.90;;;;;;5075638;28;20587;-71
2022/12/06 04:55:58;;;;;;;11.23;8.40;;;7.20;99.90;;;;;;5075480;28;20306;-71
2022/12/06 04:58:25;;;;;;;11.97;9.13;;;7.20;99.90;;;;;;5074724;28;20225;-70
2022/12/06 05:00:53;;;;;;;10.80;8.47;;;7.10;99.90;;;;;;5075493;28;20228;-71
2022/12/06 05:03:20;;;;;;;11.03;8.70;;;7.00;99.90;;;;;;5075404;28;20209;-71
2022/12/06 05:05:47;;;;;;;9.97;6.73;;;7.00;99.90;;;;;;5075343;28;20581;-71
2022/12/06 05:08:14;;;;;;;10.03;6.50;;;7.10;99.90;;;;;;5074395;28;20204;-71
2022/12/06 05:10:46;;;;;;;9.13;6.23;;;7.10;99.90;;;;;;5075383;28;20225;-71
2022/12/06 05:13:13;;;;;;;9.13;6.57;;;7.10;99.90;;;;;;5075107;28;20216;-71
2022/12/06 05:15:40;;;;;;;11.97;6.80;;;7.10;99.90;;;;;;5075248;28;20209;-71
2022/12/06 05:18:07;;;;;;;7.97;6.67;;;7.20;99.90;;;;;;5074601;28;20232;-71
2022/12/06 05:20:33;;;;;;;9.10;6.87;;;7.20;99.90;;;;;;5075132;28;20232;-71
2022/12/06 05:23:00;;;;;;;11.90;8.30;;;7.30;99.90;;;;;;5075058;28;20581;-71
2022/12/06 05:25:27;;;;;;;7.17;5.97;;;7.30;99.90;;;;;;5074769;28;20205;-70
2022/12/06 05:27:55;;;;;;;9.33;7.00;;;7.40;99.90;;;;;;5074475;28;20570;-71
2022/12/06 05:30:22;;;;;;;7.10;5.77;;;7.40;99.90;;;;;;5074695;28;20339;-71
2022/12/06 05:32:48;;;;;;;8.20;6.23;;;7.50;99.90;;;;;;5074739;28;20919;-70
2022/12/06 05:35:15;;;;;;;7.43;6.30;;;7.50;99.90;;;;;;5074923;28;20209;-70
2022/12/06 05:37:42;;;;;;;8.37;6.50;;;7.50;99.90;;;;;;5073906;28;20613;-70
2022/12/06 05:40:10;;;;;;;9.67;7.73;;;7.50;99.90;;;;;;5074425;28;20281;-70
2022/12/06 05:42:39;;;;;;;10.50;7.53;;;7.50;99.90;;;;;;5074795;28;20209;-69
2022/12/06 05:45:08;;;;;;;9.53;7.20;;;7.40;99.90;;;;;;5074569;28;20209;-71
2022/12/06 05:47:35;;;;;;;10.83;7.40;;;7.40;99.90;;;;;;5074006;28;20200;-70
2022/12/06 05:50:03;;;;;;;8.27;6.73;;;7.40;99.90;;;;;;5073834;28;20225;-71
2022/12/06 05:52:29;;;;;;;9.37;6.93;;;7.40;99.90;;;;;;5074540;28;20687;-71
2022/12/06 05:54:56;;;;;;;8.13;7.17;;;7.40;99.90;;;;;;5074804;28;20209;-71
2022/12/06 05:57:23;;;;;;;11.17;7.57;;;7.50;99.90;;;;;;5073846;28;20236;-72
2022/12/06 05:59:49;;;;;;;10.17;7.80;;;7.50;99.90;;;;;;5074366;28;20239;-72
2022/12/06 06:02:17;;;;;;;11.17;7.80;;;7.50;99.90;;;;;;5074486;28;20671;-72
2022/12/06 06:04:44;;;;;;;15.03;10.03;;;7.60;99.90;;;;;;5074164;28;20216;-71
2022/12/06 06:07:11;;;;;;;9.80;7.40;;;7.60;99.90;;;;;;5073427;28;20217;-71
2022/12/06 06:09:38;;;;;;;11.27;8.37;;;7.60;99.90;;;;;;5073830;28;20228;-71
2022/12/06 06:12:05;;;;;;;12.03;9.50;;;7.50;99.90;;;;;;5074206;28;20310;-71
2022/12/06 06:14:32;;;;;;;10.90;8.63;;;7.60;99.90;;;;;;5074275;28;20217;-71
2022/12/06 06:16:58;;;;;;;10.17;8.00;;;7.60;99.90;;;;;;5073908;28;20586;-71
2022/12/06 06:19:26;;;;;;;12.80;10.13;;;7.50;99.90;;;;;;5073971;28;20225;-71
2022/12/06 06:21:53;;;;;;;10.57;8.67;;;7.50;99.90;;;;;;5073624;28;20232;-72
2022/12/06 06:24:20;;;;;;;10.97;8.13;;;7.60;99.90;;;;;;5073991;28;20205;-72
2022/12/06 06:26:46;;;;;;;15.00;10.70;;;7.60;99.90;;;;;;5073527;28;20205;-72
2022/12/06 06:29:14;;;;;;;13.27;9.87;;;7.60;99.90;;;;;;5072751;28;20215;-71
2022/12/06 06:31:41;;;;;;;10.63;8.33;;;7.60;99.90;;;;;;5073679;28;20240;-71
2022/12/06 06:34:07;;;;;;;11.30;7.83;;;7.60;99.90;;;;;;5073639;28;20668;-72
2022/12/06 06:36:35;;;;;;;12.40;8.77;;;7.60;99.90;;;;;;5073462;28;20212;-71
2022/12/06 06:39:02;;;;;;;10.40;8.87;;;7.70;99.90;;;;;;5072887;28;20252;-71
2022/12/06 06:41:29;;;;;;;11.37;8.40;;;7.70;99.90;;;;;;5073550;28;20205;-70
2022/12/06 06:43:56;;;;;;;11.07;8.90;;;7.70;99.90;;;;;;5073268;28;20579;-71
2022/12/06 06:46:22;;;;;;;12.30;8.60;;;7.70;99.90;;;;;;5073374;28;20208;-71
2022/12/06 06:48:49;;;;;;;12.87;9.33;;;7.70;99.90;;;;;;5072547;28;20205;-71
2022/12/06 06:51:16;;;;;;;14.10;9.33;;;7.70;99.90;;;;;;5073528;28;20231;-71
2022/12/06 06:53:44;;;;;;;14.07;9.90;;;7.70;99.90;;;;;;5073251;28;20220;-71
2022/12/06 06:56:11;;;;;;;12.70;9.27;;;7.40;99.90;;;;;;5073189;28;20581;-71
2022/12/06 06:58:38;;;;;;;12.23;9.13;;;7.50;99.90;;;;;;5072413;28;20229;-71
2022/12/06 07:01:07;;;;;;;12.37;9.03;;;7.50;99.90;;;;;;5072383;28;20592;-71
2022/12/06 07:03:34;;;;;;;11.13;8.47;;;7.50;99.90;;;;;;5072632;28;20208;-71
2022/12/06 07:06:03;;;;;;;12.47;8.77;;;7.50;99.90;;;;;;5073057;28;20224;-70
2022/12/06 07:08:31;;;;;;;11.37;8.73;;;7.50;99.90;;;;;;5072339;28;20215;-69
2022/12/06 07:10:59;;;;;;;10.03;8.47;;;7.50;99.90;;;;;;5072689;28;20600;-70
2022/12/06 07:13:28;;;;;;;9.63;7.73;;;7.50;99.90;;;;;;5072793;28;20220;-65
2022/12/06 07:15:55;;;;;;;10.60;8.10;;;7.60;99.90;;;;;;5072417;28;20208;-65
2022/12/06 07:18:22;;;;;;;9.97;8.00;;;7.60;99.90;;;;;;5072231;28;20571;-63
2022/12/06 07:20:57;;;;;;;10.40;8.87;;;7.70;99.90;;;;;;5072659;28;20232;-64
2022/12/06 07:23:23;;;;;;;10.90;8.53;;;7.60;99.90;;;;;;5072774;28;20215;-63
2022/12/06 07:26:01;;;;;;;11.07;8.30;;;7.60;99.90;;;;;;5072423;28;20209;-63
2022/12/06 07:28:28;;;;;;;13.63;9.10;;;7.60;99.90;;;;;;5071939;28;20212;-63
2022/12/06 07:30:54;;;;;;;12.53;8.80;;;7.60;99.90;;;;;;5072736;28;20607;-61
2022/12/06 07:33:21;;;;;;;11.57;9.67;;;7.70;99.90;;;;;;5072411;28;20201;-61
2022/12/06 07:35:52;;;;;;;10.57;8.93;;;7.70;99.90;;;;;;5072138;28;20201;-61
2022/12/06 07:38:19;;;;;;;12.33;9.33;;;7.70;99.90;;;;;;5071656;28;20700;-62
2022/12/06 07:40:45;;;;;;;12.13;8.63;;;7.70;99.90;;;;;;5072363;28;20225;-62
2022/12/06 07:45:57;;;;;;;13.17;9.53;;;7.70;99.90;;;;;;5073399;28;20242;-61
2022/12/06 07:48:24;;;;;;;10.73;8.50;;;7.60;99.90;;;;;;5072690;28;20292;-61
2022/12/06 07:50:52;;;;;;;11.43;8.80;;;7.60;99.90;;;;;;5072836;28;20716;-63
2022/12/06 07:53:19;;;;;;;12.10;8.83;;;7.70;99.90;;;;;;5071937;28;20209;-61
2022/12/06 07:55:45;;;;;;;10.50;8.67;;;7.80;99.90;;;;;;5072026;28;20200;-61
2022/12/06 07:58:13;;;;;;;11.93;8.30;;;7.80;99.90;;;;;;5071409;28;20224;-61
2022/12/06 08:00:40;;;;;;;10.43;8.47;;;7.80;99.90;;;;;;5072140;28;20229;-64
2022/12/06 08:03:07;;;;;;;10.90;8.60;;;7.90;99.90;;;;;;5071899;28;20688;-62
2022/12/06 08:05:34;;;;;;;11.37;7.70;;;7.90;99.90;;;;;;5071964;28;20208;-63
2022/12/06 08:08:01;;;;;;;10.63;8.07;;;8.10;99.90;;;;;;5071101;28;20232;-62
2022/12/06 08:10:27;;;;;;;11.33;7.90;;;8.10;99.90;;;;;;5072021;28;20232;-63
2022/12/06 08:12:54;;;;;;;10.43;7.63;;;8.20;99.90;;;;;;5071566;28;20288;-61
2022/12/06 08:15:22;;;;;;;9.20;7.50;;;8.20;99.90;;;;;;5071852;28;20216;-63
2022/12/06 08:17:49;;;;;;;9.80;7.50;;;8.10;99.90;;;;;;5071070;28;20239;-62
2022/12/06 08:20:16;;;;;;;9.73;7.60;;;8.20;99.90;;;;;;5071703;28;20699;-62
2022/12/06 08:22:42;;;;;;;9.23;6.90;;;8.20;99.90;;;;;;5071655;28;20215;-62
2022/12/06 08:25:10;;;;;;;10.00;7.20;;;8.20;99.90;;;;;;5071871;28;20204;-62
2022/12/06 08:27:36;;;;;;;7.93;6.50;;;8.30;99.90;;;;;;5071004;28;20699;-60
2022/12/06 08:30:04;;;;;;;9.67;7.27;;;8.40;99.90;;;;;;5071442;28;20233;-61
2022/12/06 08:32:32;;;;;;;11.63;8.17;;;8.50;99.90;;;;;;5071507;28;20205;-62
2022/12/06 08:34:59;;;;;;;10.90;8.33;;;8.20;99.90;;;;;;5071579;28;20215;-61
2022/12/06 08:37:25;;;;;;;11.87;8.83;;;7.80;99.90;;;;;;5070753;28;20215;-62
2022/12/06 08:39:52;;;;;;;11.43;8.70;;;7.50;99.90;;;;;;5071679;28;20251;-61
2022/12/06 08:42:19;;;;;;;12.83;8.60;;;7.50;99.90;;;;;;5071733;28;20209;-61
2022/12/06 08:44:45;;;;;;;11.40;8.23;;;7.60;99.90;;;;;;5071504;28;20586;-62
2022/12/06 08:47:12;;;;;;;9.73;8.00;;;7.80;99.90;;;;;;5071406;28;20208;-61
2022/12/06 08:49:40;;;;;;;10.80;7.90;;;8.00;99.90;;;;;;5070699;28;20233;-60
2022/12/06 08:52:07;;;;;;;10.00;8.13;;;8.10;99.90;;;;;;5071689;28;20204;-60
2022/12/06 08:54:35;;;;;;;9.60;7.97;;;8.30;99.90;;;;;;5071550;28;20216;-63
2022/12/06 08:57:02;;;;;;;9.20;7.43;;;8.30;99.90;;;;;;5071308;28;20216;-63
2022/12/06 08:59:29;;;;;;;8.90;7.27;;;8.40;99.90;;;;;;5070642;28;20240;-61
2022/12/06 09:01:55;;;;;;;11.77;8.27;;;8.50;99.90;;;;;;5071330;28;20216;-61
2022/12/06 09:04:22;;;;;;;11.33;8.07;;;8.50;99.90;;;;;;5071784;28;20220;-61
2022/12/06 09:06:50;;;;;;;8.97;6.90;;;8.50;99.90;;;;;;5071249;28;20574;-61
2022/12/06 09:09:18;;;;;;;7.90;6.97;;;8.50;99.90;;;;;;5070636;28;20201;-61
2022/12/06 09:11:46;;;;;;;9.90;7.63;;;8.60;99.90;;;;;;5071245;28;20683;-63
2022/12/06 09:14:13;;;;;;;8.77;6.87;;;8.70;99.90;;;;;;5071241;28;20208;-62
2022/12/06 09:16:42;;;;;;;10.03;7.43;;;8.70;99.90;;;;;;5071205;28;20205;-61
2022/12/06 09:19:09;;;;;;;10.23;7.40;;;8.80;99.90;;;;;;5070592;28;20225;-62
2022/12/06 09:21:38;;;;;;;15.23;8.37;;;8.90;99.90;;;;;;5071134;28;20209;-62
2022/12/06 09:24:07;;;;;;;7.30;6.53;;;8.90;99.90;;;;;;5071285;28;20237;-62
2022/12/06 09:26:33;;;;;;;10.17;7.77;;;8.80;99.90;;;;;;5074858;28;20215;-63
2022/12/06 09:29:00;;;;;;;11.13;7.17;;;8.70;99.90;;;;;;5074210;28;20201;-61
2022/12/06 09:31:27;;;;;;;8.93;6.63;;;8.60;99.90;;;;;;5074531;28;20209;-61
2022/12/06 09:33:54;;;;;;;10.07;6.97;;;8.60;99.90;;;;;;5074735;28;20295;-61
2022/12/06 09:36:23;;;;;;;7.60;6.33;;;8.70;99.90;;;;;;5074679;28;20205;-63
2022/12/06 09:38:53;;;;;;;6.20;5.60;;;8.80;99.90;;;;;;5073813;28;20236;-63
2022/12/06 09:41:41;;;;;;;7.53;6.70;;;8.80;99.90;;;;;;5074410;28;20224;-61
2022/12/06 09:44:21;;;;;;;7.93;6.60;;;8.90;99.90;;;;;;5074704;28;20216;-63
2022/12/06 09:47:02;;;;;;;9.87;7.50;;;9.00;99.90;;;;;;5074614;28;20205;-61
2022/12/06 09:49:32;;;;;;;10.83;7.47;;;9.00;99.90;;;;;;5073885;28;20221;-62
2022/12/06 09:52:29;;;;;;;9.93;7.87;;;9.00;99.90;;;;;;5074332;28;20209;-62
2022/12/06 09:55:15;;;;;;;15.20;9.87;;;9.00;99.90;;;;;;5074247;28;20201;-62
2022/12/06 09:57:49;;;;;;;10.27;8.47;;;8.80;99.90;;;;;;5073421;28;20672;-61
2022/12/06 10:00:20;;;;;;;12.30;9.17;;;8.80;99.90;;;;;;5074135;28;20228;-61
2022/12/06 10:03:09;;;;;;;16.07;10.53;;;8.70;99.90;;;;;;5074345;28;20208;-61
2022/12/06 10:05:54;;;;;;;15.20;9.30;;;8.70;99.90;;;;;;5074390;28;20220;-63
2022/12/06 10:08:31;;;;;;;12.53;8.87;;;8.70;99.90;;;;;;5073253;28;20204;-61
2022/12/06 10:11:03;;;;;;;27.97;22.10;;;8.80;99.90;;;;;;5073779;28;20607;-62
2022/12/06 10:13:47;;;;;;;14.53;10.30;;;8.70;99.90;;;;;;5074142;28;20220;-61
2022/12/06 10:16:23;;;;;;;14.93;10.00;;;8.50;99.90;;;;;;5074007;28;20495;-63
2022/12/06 10:19:03;;;;;;;15.77;9.60;;;8.50;99.90;;;;;;5073206;28;20224;-63
2022/12/06 10:21:42;;;;;;;12.30;9.63;;;8.50;99.90;;;;;;5073788;28;20205;-62
2022/12/06 10:24:24;;;;;;;10.87;9.00;;;8.60;99.90;;;;;;5073853;28;20220;-62
2022/12/06 10:26:53;;;;;;;10.37;8.17;;;8.70;99.90;;;;;;5073559;28;20584;-62
2022/12/06 10:29:23;;;;;;;10.67;7.60;;;8.70;99.90;;;;;;5072861;28;20319;-62
2022/12/06 10:31:57;;;;;;;10.63;8.70;;;8.60;99.90;;;;;;5073432;28;20212;-62
2022/12/06 10:34:41;;;;;;;9.83;7.73;;;8.60;99.90;;;;;;5073483;28;20348;-62
2022/12/06 10:37:16;;;;;;;9.23;7.33;;;8.50;99.90;;;;;;5073302;28;20209;-61
2022/12/06 10:39:50;;;;;;;10.80;7.90;;;8.50;99.90;;;;;;5072649;28;20232;-61
2022/12/06 10:42:28;;;;;;;11.47;8.33;;;8.40;99.90;;;;;;5073256;28;20208;-62
2022/12/06 10:47:02;;;;;;;10.37;8.13;;;8.30;99.90;;;;;;5073705;28;20204;-63
2022/12/06 10:47:49;;;;;;;10.97;8.43;;;8.20;99.90;;;;;;5072516;28;20227;-61
2022/12/06 10:50:22;;;;;;;10.63;8.23;;;8.30;99.90;;;;;;5073248;28;20228;-63
2022/12/06 10:52:52;;;;;;;10.77;7.93;;;8.30;99.90;;;;;;5073490;28;20193;-61
2022/12/06 10:55:24;;;;;;;9.63;8.40;;;8.20;99.90;;;;;;5073024;28;20201;-62
2022/12/06 10:57:57;;;;;;;8.70;7.77;;;8.30;99.90;;;;;;5072555;28;20301;-62
2022/12/06 11:00:27;;;;;;;9.07;7.50;;;8.30;99.90;;;;;;5073113;28;20224;-63
2022/12/06 11:02:59;;;;;;;9.00;7.67;;;8.30;99.90;;;;;;5072949;28;20211;-63
2022/12/06 11:05:29;;;;;;;11.00;7.53;;;8.30;99.90;;;;;;5073513;28;20602;-63
2022/12/06 11:08:03;;;;;;;10.30;7.43;;;8.40;99.90;;;;;;5072492;28;20216;-62
2022/12/06 11:10:33;;;;;;;9.13;7.40;;;8.40;99.90;;;;;;5072738;28;20600;-62
2022/12/06 11:13:09;;;;;;;10.07;7.53;;;8.50;99.90;;;;;;5072953;28;20231;-62
2022/12/06 11:15:40;;;;;;;8.83;7.00;;;8.40;99.90;;;;;;5072771;28;20219;-63
2022/12/06 11:18:12;;;;;;;8.70;7.23;;;8.40;99.90;;;;;;5072265;28;20212;-63
2022/12/06 11:20:44;;;;;;;8.97;7.30;;;8.50;99.90;;;;;;5073110;28;20503;-61
2022/12/06 11:23:16;;;;;;;10.07;7.63;;;8.50;99.90;;;;;;5072542;28;20205;-62
2022/12/06 11:25:55;;;;;;;8.87;6.87;;;8.50;99.90;;;;;;5072681;28;20212;-62
2022/12/06 11:28:35;;;;;;;8.90;6.87;;;8.40;99.90;;;;;;5071729;28;20205;-61
2022/12/06 11:31:12;;;;;;;8.87;7.03;;;8.30;99.90;;;;;;5072365;28;20232;-61
2022/12/06 11:33:39;;;;;;;9.10;6.50;;;8.30;99.90;;;;;;5072273;28;20584;-61
2022/12/06 11:36:08;;;;;;;8.73;6.53;;;8.20;99.90;;;;;;5071835;28;20311;-62
2022/12/06 11:38:36;;;;;;;7.40;6.07;;;8.20;99.90;;;;;;5071078;28;20322;-61
2022/12/06 11:41:07;;;;;;;7.90;5.70;;;8.10;99.90;;;;;;5071893;28;20232;-62
2022/12/06 11:43:35;;;;;;;6.07;5.40;;;8.10;99.90;;;;;;5066252;28;20207;-61
2022/12/06 11:46:04;;;;;;;5.27;4.70;;;8.10;99.90;;;;;;5071006;28;20555;-64
2022/12/06 11:48:33;;;;;;;6.37;4.80;;;8.10;99.90;;;;;;5070617;28;20203;-64
2022/12/06 11:50:59;;;;;;;5.33;3.77;;;8.10;99.90;;;;;;5071339;28;20708;-63
2022/12/06 11:53:31;;;;;;;7.17;4.20;;;7.90;99.90;;;;;;5073822;28;20212;-64
2022/12/06 11:56:03;;;;;;;7.93;5.63;;;7.60;99.90;;;;;;5074176;28;20215;-66
2022/12/06 11:58:35;;;;;;;5.47;4.17;;;7.50;99.90;;;;;;5070259;28;20299;-63
2022/12/06 12:01:09;;;;;;;5.20;3.37;;;7.50;99.90;;;;;;5070678;28;20236;-61
2022/12/06 12:03:38;;;;;;;4.17;3.73;;;7.50;99.90;;;;;;5070959;28;20215;-62
2022/12/06 12:06:16;;;;;;;6.00;3.83;;;7.40;99.90;;;;;;5071623;28;20216;-64
2022/12/06 12:08:52;;;;;;;6.40;4.10;;;7.30;99.90;;;;;;5070687;28;20189;-64
2022/12/06 12:11:21;;;;;;;5.10;4.40;;;7.30;99.90;;;;;;5070488;28;20228;-62
2022/12/06 12:13:51;;;;;;;4.70;4.30;;;7.30;99.90;;;;;;5071005;28;20212;-60
2022/12/06 12:16:22;;;;;;;6.27;4.50;;;7.50;99.90;;;;;;5072365;28;20205;-62
2022/12/06 12:18:58;;;;;;;5.87;4.00;;;7.60;99.90;;;;;;5071183;28;20252;-62
2022/12/06 12:21:38;;;;;;;5.00;3.87;;;7.70;99.90;;;;;;5070383;28;20703;-60
2022/12/06 12:24:26;;;;;;;7.23;5.30;;;7.80;99.90;;;;;;5070847;28;20208;-61
2022/12/06 12:26:53;;;;;;;4.87;3.80;;;7.80;99.90;;;;;;5070686;28;20201;-62
2022/12/06 12:29:20;;;;;;;4.73;3.77;;;7.90;99.90;;;;;;5070366;28;20225;-61
2022/12/06 12:31:55;;;;;;;6.27;3.73;;;8.00;99.90;;;;;;5070384;28;20205;-62
2022/12/06 12:34:24;;;;;;;5.93;4.00;;;8.00;99.90;;;;;;5070844;28;20208;-61
2022/12/06 12:36:53;;;;;;;5.00;3.40;;;8.10;99.90;;;;;;5070211;28;20216;-61
2022/12/06 12:39:27;;;;;;;4.20;3.80;;;8.20;99.90;;;;;;5070242;28;20239;-62
2022/12/06 12:41:54;;;;;;;5.10;3.83;;;8.20;99.90;;;;;;5070072;28;20231;-61
2022/12/06 12:44:25;;;;;;;3.87;3.40;;;8.20;99.90;;;;;;5070724;28;20224;-60
2022/12/06 12:46:56;;;;;;;5.80;3.77;;;8.20;99.90;;;;;;5070546;28;20680;-63
2022/12/06 12:49:26;;;;;;;3.60;3.20;;;8.30;99.90;;;;;;5069605;28;20221;-62
2022/12/06 12:51:54;;;;;;;11.20;4.73;;;8.30;99.90;;;;;;5070201;28;20304;-62
2022/12/06 12:54:24;;;;;;;3.80;2.77;;;8.30;99.90;;;;;;5070601;28;20201;-62
2022/12/06 12:56:52;;;;;;;4.27;2.90;;;8.30;99.90;;;;;;5070601;28;20211;-63
2022/12/06 12:59:21;;;;;;;4.90;3.17;;;8.20;99.90;;;;;;5071186;28;20231;-61
2022/12/06 13:01:52;;;;;;;3.30;2.57;;;8.20;99.90;;;;;;5073862;28;20204;-61
2022/12/06 13:04:35;;;;;;;4.07;2.80;;;8.20;99.90;;;;;;5074390;28;20205;-61
2022/12/06 13:07:04;;;;;;;4.80;2.70;;;8.10;99.90;;;;;;5074464;28;20608;-62
2022/12/06 13:09:38;;;;;;;4.17;3.00;;;8.10;99.90;;;;;;5073623;28;20221;-61
2022/12/06 13:12:10;;;;;;;3.30;2.83;;;8.00;99.90;;;;;;5073331;28;20272;-61
2022/12/06 13:14:40;;;;;;;5.80;3.90;;;8.10;99.90;;;;;;5074013;28;20216;-62
2022/12/06 13:17:08;;;;;;;4.93;3.27;;;8.10;99.90;;;;;;5074277;28;20251;-61
2022/12/06 13:19:41;;;;;;;3.33;2.73;;;8.20;99.90;;;;;;5073455;28;20233;-62
2022/12/06 13:22:16;;;;;;;4.27;3.03;;;8.10;99.90;;;;;;5073777;28;20224;-63
2022/12/06 13:24:44;;;;;;;3.53;2.93;;;8.30;99.90;;;;;;5073430;28;20212;-59
2022/12/06 13:27:16;;;;;;;4.47;2.90;;;8.20;99.90;;;;;;5074973;28;20205;-62
2022/12/06 13:29:52;;;;;;;5.37;3.30;;;8.20;99.90;;;;;;5093148;22;21441;-57